Time;durP1;ratioP1;P1;durP2;ratioP2;P2;SDS_P1;SDS_P2;PMS_P1;PMS_P2;Temp;Humidity;BMP_temperature;BMP_pressure;BME280_temperature;BME280_humidity;BME280_pressure;Samples;Min_cycle;Max_cycle;Signal;HPM_P1;HPM_P2
2022/11/01 00:00:41;;;;;;;37.15;19.00;;;;;;;;;;4917751;29;20051;-67
2022/11/01 00:03:45;;;;;;;31.63;19.13;;;;;;;;;;4917692;29;20043;-67
2022/11/01 00:06:49;;;;;;;33.58;18.77;;;;;;;;;;4916631;29;20048;-66
2022/11/01 00:09:53;;;;;;;36.20;17.45;;;;;;;;;;4917511;29;20113;-67
2022/11/01 00:12:58;;;;;;;33.28;17.92;;;;;;;;;;4917459;29;20043;-67
2022/11/01 00:16:02;;;;;;;42.78;18.90;;;;;;;;;;4917328;29;20055;-67
2022/11/01 00:19:06;;;;;;;36.75;19.50;;;;;;;;;;4917217;29;20035;-67
2022/11/01 00:22:10;;;;;;;35.97;17.55;;;;;;;;;;4917371;29;20051;-66
2022/11/01 00:25:14;;;;;;;30.17;16.33;;;;;;;;;;4916933;29;20051;-67
2022/11/01 00:28:19;;;;;;;31.50;15.85;;;;;;;;;;4915971;29;20059;-66
2022/11/01 00:31:24;;;;;;;28.17;15.52;;;;;;;;;;4917124;29;20043;-67
2022/11/01 00:34:29;;;;;;;33.25;16.75;;;;;;;;;;4917083;29;20071;-66
2022/11/01 00:37:33;;;;;;;34.97;16.70;;;;;;;;;;4916739;29;20047;-66
2022/11/01 00:40:37;;;;;;;38.50;17.33;;;;;;;;;;4916060;29;20515;-66
2022/11/01 00:43:42;;;;;;;37.70;18.02;;;;;;;;;;4916522;29;20047;-67
2022/11/01 00:46:46;;;;;;;39.83;21.10;;;;;;;;;;4916557;29;20055;-66
2022/11/01 00:49:50;;;;;;;30.83;19.55;;;;;;;;;;4916092;29;20059;-66
2022/11/01 00:52:55;;;;;;;40.38;15.50;;;;;;;;;;4916570;29;20052;-66
2022/11/01 00:56:03;;;;;;;23.65;15.23;;;;;;;;;;4916036;29;20507;-66
2022/11/01 00:59:07;;;;;;;28.38;15.30;;;;;;;;;;4916371;29;20047;-66
2022/11/01 01:02:11;;;;;;;28.88;15.95;;;;;;;;;;4916204;29;20158;-66
2022/11/01 01:05:16;;;;;;;33.20;15.65;;;;;;;;;;4915260;29;20047;-66
2022/11/01 01:08:20;;;;;;;29.30;16.13;;;;;;;;;;4916059;29;20137;-66
2022/11/01 01:11:24;;;;;;;29.77;16.45;;;;;;;;;;4915161;29;20056;-66
2022/11/01 01:14:29;;;;;;;26.58;15.80;;;;;;;;;;4916253;29;20059;-66
2022/11/01 01:17:33;;;;;;;31.20;15.95;;;;;;;;;;4916251;29;20519;-66
2022/11/01 01:20:38;;;;;;;25.08;14.75;;;;;;;;;;4916268;29;20051;-66
2022/11/01 01:23:42;;;;;;;31.42;16.13;;;;;;;;;;4915998;29;20063;-66
2022/11/01 01:26:47;;;;;;;38.45;16.55;;;;;;;;;;4914695;29;20054;-66
2022/11/01 01:29:51;;;;;;;33.55;18.13;;;;;;;;;;4915743;29;20047;-66
2022/11/01 01:32:55;;;;;;;37.72;19.20;;;;;;;;;;4915602;29;20503;-66
2022/11/01 01:36:00;;;;;;;38.28;19.80;;;;;;;;;;4915703;29;20392;-66
2022/11/01 01:39:04;;;;;;;40.15;19.67;;;;;;;;;;4915450;29;20047;-66
2022/11/01 01:42:15;;;;;;;38.67;19.88;;;;;;;;;;4915349;29;20043;-66
2022/11/01 01:45:19;;;;;;;35.95;18.77;;;;;;;;;;4915745;29;20412;-66
2022/11/01 01:48:26;;;;;;;37.25;18.50;;;;;;;;;;4915297;29;20055;-66
2022/11/01 01:51:30;;;;;;;37.40;19.10;;;;;;;;;;4915497;29;20043;-66
2022/11/01 01:54:37;;;;;;;37.45;19.92;;;;;;;;;;4914887;29;20043;-66
2022/11/01 01:57:42;;;;;;;40.20;19.02;;;;;;;;;;4915706;29;20091;-66
2022/11/01 02:00:47;;;;;;;38.92;19.77;;;;;;;;;;4915344;29;20055;-66
2022/11/01 02:03:51;;;;;;;38.58;19.45;;;;;;;;;;4915341;29;20043;-66
2022/11/01 02:06:56;;;;;;;38.92;19.95;;;;;;;;;;4915194;29;20067;-66
2022/11/01 02:10:00;;;;;;;44.60;20.90;;;;;;;;;;4915235;29;20047;-66
2022/11/01 02:13:10;;;;;;;32.30;19.02;;;;;;;;;;4915071;29;20047;-66
2022/11/01 02:16:15;;;;;;;37.22;18.15;;;;;;;;;;4914995;29;20043;-66
2022/11/01 02:19:31;;;;;;;38.92;17.30;;;;;;;;;;4914825;29;20043;-66
2022/11/01 02:22:51;;;;;;;34.75;18.63;;;;;;;;;;4915108;29;20515;-66
2022/11/01 02:26:14;;;;;;;27.80;16.25;;;;;;;;;;4915210;29;20396;-66
2022/11/01 02:29:29;;;;;;;25.38;15.35;;;;;;;;;;4915165;29;20055;-66
2022/11/01 02:32:35;;;;;;;36.85;19.23;;;;;;;;;;4915178;29;20051;-66
2022/11/01 02:35:55;;;;;;;29.92;17.80;;;;;;;;;;4914841;29;20051;-66
2022/11/01 02:39:08;;;;;;;43.30;18.80;;;;;;;;;;4914875;29;20040;-66
2022/11/01 02:42:20;;;;;;;32.63;17.75;;;;;;;;;;4915054;29;20047;-66
2022/11/01 02:45:39;;;;;;;33.85;18.30;;;;;;;;;;4915062;29;20046;-66
2022/11/01 02:48:43;;;;;;;36.08;18.45;;;;;;;;;;4914601;29;20067;-66
2022/11/01 02:51:49;;;;;;;42.70;20.77;;;;;;;;;;4915131;29;20043;-66
2022/11/01 02:55:01;;;;;;;30.73;17.63;;;;;;;;;;4914963;29;20043;-66
2022/11/01 02:58:06;;;;;;;34.80;17.63;;;;;;;;;;4915135;29;20055;-66
2022/11/01 03:01:14;;;;;;;32.00;16.67;;;;;;;;;;4915079;29;20117;-66
2022/11/01 03:04:18;;;;;;;34.17;16.50;;;;;;;;;;4914477;29;20101;-66
2022/11/01 03:07:23;;;;;;;30.80;16.52;;;;;;;;;;4917108;29;20063;-66
2022/11/01 03:10:39;;;;;;;29.80;15.40;;;;;;;;;;4918353;29;20048;-66
2022/11/01 03:13:47;;;;;;;28.52;15.63;;;;;;;;;;4918339;29;20059;-67
2022/11/01 03:17:09;;;;;;;32.67;14.77;;;;;;;;;;4917474;29;20389;-67
2022/11/01 03:20:21;;;;;;;33.78;16.58;;;;;;;;;;4918509;29;20051;-67
2022/11/01 03:23:34;;;;;;;39.28;17.88;;;;;;;;;;4917640;29;20232;-67
2022/11/01 03:26:40;;;;;;;31.95;17.63;;;;;;;;;;4918309;29;20706;-67
2022/11/01 03:29:47;;;;;;;30.73;15.70;;;;;;;;;;4918068;29;20051;-67
2022/11/01 03:32:53;;;;;;;32.03;16.35;;;;;;;;;;4918053;29;20039;-67
2022/11/01 03:35:59;;;;;;;24.77;14.75;;;;;;;;;;4918161;29;20055;-67
2022/11/01 03:39:05;;;;;;;29.15;15.15;;;;;;;;;;4917858;29;20396;-67
2022/11/01 03:42:11;;;;;;;30.67;15.93;;;;;;;;;;4918108;29;20052;-67
2022/11/01 03:45:18;;;;;;;28.95;15.27;;;;;;;;;;4917728;29;20059;-67
2022/11/01 03:48:22;;;;;;;31.33;14.63;;;;;;;;;;4917451;29;20059;-67
2022/11/01 03:51:26;;;;;;;25.55;13.68;;;;;;;;;;4917613;29;20066;-67
2022/11/01 03:54:31;;;;;;;23.23;13.85;;;;;;;;;;4917398;29;20047;-67
2022/11/01 03:57:35;;;;;;;26.08;13.70;;;;;;;;;;4916648;29;20046;-67
2022/11/01 04:00:41;;;;;;;29.05;13.45;;;;;;;;;;4917391;29;20051;-67
2022/11/01 04:03:45;;;;;;;26.92;13.43;;;14.70;97.20;;;;;;4917576;29;20649;-67
2022/11/01 04:06:50;;;;;;;26.30;13.13;;;14.40;97.60;;;;;;4917516;29;20055;-67
2022/11/01 04:09:54;;;;;;;21.85;12.52;;;14.20;97.80;;;;;;4917639;29;20047;-67
2022/11/01 04:13:00;;;;;;;26.63;13.57;;;14.20;97.60;;;;;;4917294;29;20043;-67
2022/11/01 04:22:49;;;;;;;24.85;13.35;;;14.20;97.90;;;;;;4917467;29;20101;-66
2022/11/01 04:25:52;;;;;;;32.55;14.05;;;14.20;97.90;;;;;;4916920;29;20113;-66
2022/11/01 04:28:56;;;;;;;24.73;12.57;;;14.20;97.70;;;;;;4917023;29;20059;-66
2022/11/01 04:32:01;;;;;;;23.73;12.75;;;14.20;97.50;;;;;;4917201;29;20063;-66
2022/11/01 04:35:06;;;;;;;34.42;14.15;;;14.20;97.40;;;;;;4916735;29;20047;-66
2022/11/01 04:38:11;;;;;;;28.15;13.73;;;14.10;97.50;;;;;;4916962;29;20043;-67
2022/11/01 04:41:17;;;;;;;22.73;13.43;;;14.20;97.70;;;;;;4916801;29;20062;-66
2022/11/01 04:44:21;;;;;;;25.08;13.43;;;14.10;97.80;;;;;;4916879;29;20042;-67
2022/11/01 04:47:25;;;;;;;24.98;13.13;;;14.00;98.00;;;;;;4916581;29;20063;-66
2022/11/01 04:50:29;;;;;;;25.80;14.32;;;14.10;97.70;;;;;;4916593;29;20075;-66
2022/11/01 04:53:33;;;;;;;26.35;13.98;;;14.10;97.40;;;;;;4916638;29;20047;-65
2022/11/01 04:56:37;;;;;;;25.85;13.70;;;14.00;97.10;;;;;;4916643;29;20106;-66
2022/11/01 04:59:41;;;;;;;27.10;14.30;;;13.90;97.20;;;;;;4916642;29;20055;-66
2022/11/01 05:02:45;;;;;;;22.13;14.35;;;13.80;97.50;;;;;;4916745;29;20059;-66
2022/11/01 05:05:49;;;;;;;28.50;14.77;;;13.80;97.90;;;;;;4915841;29;20499;-66
2022/11/01 05:08:53;;;;;;;32.17;14.50;;;13.80;98.60;;;;;;4916321;29;20071;-66
2022/11/01 05:11:58;;;;;;;37.97;15.82;;;13.70;98.30;;;;;;4915520;29;20044;-66
2022/11/01 05:15:02;;;;;;;26.35;15.02;;;13.70;98.00;;;;;;4916248;29;20047;-67
2022/11/01 05:18:06;;;;;;;27.10;14.13;;;13.70;98.00;;;;;;4916392;29;20503;-67
2022/11/01 05:21:11;;;;;;;25.23;14.05;;;13.70;98.20;;;;;;4915523;29;20048;-67
2022/11/01 05:24:15;;;;;;;23.80;14.50;;;13.80;98.40;;;;;;4915973;29;20407;-68
2022/11/01 05:27:19;;;;;;;26.50;14.90;;;13.90;98.40;;;;;;4915935;29;20055;-67
2022/11/01 05:30:23;;;;;;;25.40;14.48;;;13.90;98.40;;;;;;4915625;29;20059;-68
2022/11/01 05:33:27;;;;;;;29.23;14.90;;;13.80;98.40;;;;;;4916268;29;20043;-67
2022/11/01 05:36:31;;;;;;;28.90;15.32;;;13.80;98.30;;;;;;4915984;29;20056;-67
2022/11/01 05:39:35;;;;;;;28.63;14.23;;;13.70;98.30;;;;;;4915976;29;20059;-67
2022/11/01 05:42:39;;;;;;;29.90;14.30;;;13.70;98.00;;;;;;4915835;29;20043;-67
2022/11/01 05:45:43;;;;;;;25.58;14.82;;;13.70;97.90;;;;;;4915851;29;20051;-67
2022/11/01 05:48:47;;;;;;;28.13;14.18;;;13.70;97.80;;;;;;4915405;29;20063;-67
2022/11/01 05:51:51;;;;;;;26.60;14.45;;;13.70;98.00;;;;;;4915586;29;20055;-67
2022/11/01 05:54:55;;;;;;;24.33;13.68;;;13.80;98.20;;;;;;4915626;29;20051;-67
2022/11/01 05:58:00;;;;;;;26.77;14.55;;;13.80;98.00;;;;;;4915470;29;20062;-67
2022/11/01 06:01:05;;;;;;;26.45;13.85;;;13.80;97.80;;;;;;4915401;29;20044;-67
2022/11/01 06:04:09;;;;;;;31.42;14.73;;;13.80;97.80;;;;;;4915258;29;20047;-67
2022/11/01 06:07:13;;;;;;;24.40;13.98;;;13.90;97.60;;;;;;4915539;29;20055;-66
2022/11/01 06:10:17;;;;;;;29.02;13.77;;;14.00;97.40;;;;;;4915231;29;20412;-67
2022/11/01 06:13:21;;;;;;;23.75;13.75;;;14.00;97.20;;;;;;4915223;29;20036;-68
2022/11/01 06:16:26;;;;;;;27.20;14.18;;;14.10;97.20;;;;;;4915467;29;20074;-67
2022/11/01 06:19:30;;;;;;;21.88;15.07;;;14.10;97.10;;;;;;4915379;29;20634;-68
2022/11/01 06:22:35;;;;;;;27.70;16.15;;;14.10;97.40;;;;;;4914583;29;20054;-67
2022/11/01 06:25:39;;;;;;;34.40;17.83;;;14.20;97.90;;;;;;4914907;29;20536;-67
2022/11/01 06:28:43;;;;;;;35.85;18.60;;;14.30;97.80;;;;;;4915077;29;20047;-67
2022/11/01 06:31:47;;;;;;;29.45;16.63;;;14.50;97.90;;;;;;4914443;29;20043;-67
2022/11/01 06:34:51;;;;;;;71.60;41.20;;;14.60;97.60;;;;;;4915228;29;20044;-67
2022/11/01 06:38:06;;;;;;;55.08;31.90;;;14.80;97.80;;;;;;4914905;29;20051;-68
2022/11/01 06:41:10;;;;;;;38.38;25.05;;;15.10;97.70;;;;;;4917316;29;20047;-67
2022/11/01 06:44:14;;;;;;;42.58;23.38;;;15.30;97.40;;;;;;4918668;29;20047;-67
2022/11/01 06:47:18;;;;;;;37.90;22.30;;;15.50;97.20;;;;;;4918859;29;20047;-66
2022/11/01 06:50:23;;;;;;;38.70;22.23;;;15.70;97.00;;;;;;4918771;29;20507;-67
2022/11/01 06:53:27;;;;;;;56.90;24.40;;;15.90;96.50;;;;;;4918889;29;20056;-67
2022/11/01 06:56:31;;;;;;;45.25;22.00;;;16.10;96.40;;;;;;4918539;29;20063;-66
2022/11/01 06:59:34;;;;;;;39.05;21.17;;;16.20;96.10;;;;;;4917998;29;20258;-67
2022/11/01 07:02:38;;;;;;;56.63;24.40;;;16.40;96.00;;;;;;4918628;29;20047;-66
2022/11/01 07:05:42;;;;;;;45.88;23.15;;;16.60;95.80;;;;;;4918762;29;20067;-66
2022/11/01 07:08:47;;;;;;;32.55;18.73;;;16.90;95.40;;;;;;4917573;29;20079;-67
2022/11/01 07:11:51;;;;;;;42.13;19.27;;;17.20;95.10;;;;;;4918621;29;20381;-67
2022/11/01 07:14:54;;;;;;;33.40;17.42;;;17.50;94.90;;;;;;4918483;29;20055;-66
2022/11/01 07:18:00;;;;;;;29.15;15.23;;;17.80;94.70;;;;;;4918520;29;20055;-67
2022/11/01 07:21:05;;;;;;;28.35;14.63;;;18.10;94.50;;;;;;4918281;29;20047;-67
2022/11/01 07:24:08;;;;;;;26.08;12.80;;;18.20;94.00;;;;;;4917509;29;20051;-67
2022/11/01 07:27:12;;;;;;;24.60;12.63;;;18.40;93.80;;;;;;4918198;29;20059;-67
2022/11/01 07:30:17;;;;;;;26.27;12.40;;;18.70;93.60;;;;;;4918306;29;20051;-67
2022/11/01 07:33:21;;;;;;;23.60;12.80;;;19.00;93.30;;;;;;4917338;29;20393;-66
2022/11/01 07:36:26;;;;;;;32.53;13.13;;;19.30;92.80;;;;;;4918213;29;20059;-67
2022/11/01 07:39:30;;;;;;;35.13;14.15;;;19.50;92.60;;;;;;4917955;29;20507;-67
2022/11/01 07:42:41;;;;;;;25.58;12.63;;;19.60;92.30;;;;;;4918054;29;20043;-68
2022/11/01 07:45:45;;;;;;;22.42;13.07;;;19.80;92.10;;;;;;4917805;29;20170;-68
2022/11/01 07:48:50;;;;;;;38.35;13.52;;;20.00;92.00;;;;;;4917457;29;20063;-67
2022/11/01 07:51:54;;;;;;;24.42;13.43;;;20.10;91.60;;;;;;4916821;29;20039;-67
2022/11/01 07:54:58;;;;;;;25.13;13.43;;;20.30;91.80;;;;;;4917581;29;20067;-67
2022/11/01 07:58:03;;;;;;;23.38;13.13;;;20.50;91.20;;;;;;4916772;29;20039;-66
2022/11/01 08:01:08;;;;;;;19.70;11.68;;;20.70;91.30;;;;;;4917675;29;20047;-63
2022/11/01 08:04:12;;;;;;;21.20;12.35;;;20.80;90.70;;;;;;4917319;29;20039;-64
2022/11/01 08:07:16;;;;;;;30.77;14.43;;;20.70;90.90;;;;;;4917355;29;20066;-64
2022/11/01 08:10:20;;;;;;;23.20;12.93;;;20.60;91.10;;;;;;4917345;29;20063;-64
2022/11/01 08:13:25;;;;;;;24.10;13.15;;;20.50;91.40;;;;;;4917070;29;20388;-65
2022/11/01 08:16:29;;;;;;;22.50;12.48;;;20.50;91.60;;;;;;4917061;29;20424;-65
2022/11/01 08:19:33;;;;;;;29.60;15.57;;;20.50;91.70;;;;;;4917634;29;20043;-63
2022/11/01 08:22:38;;;;;;;20.30;12.73;;;20.50;91.60;;;;;;4916272;29;20048;-64
2022/11/01 08:25:43;;;;;;;24.88;12.85;;;20.50;91.90;;;;;;4916803;29;20039;-66
2022/11/01 08:28:47;;;;;;;20.98;14.02;;;20.60;91.90;;;;;;4916835;29;20059;-63
2022/11/01 08:31:51;;;;;;;30.23;15.32;;;20.70;91.70;;;;;;4917062;29;20051;-64
2022/11/01 08:34:55;;;;;;;27.73;15.98;;;20.70;91.80;;;;;;4916836;29;20520;-65
2022/11/01 08:38:02;;;;;;;23.70;13.80;;;20.70;91.80;;;;;;4916432;29;20051;-65
2022/11/01 08:41:06;;;;;;;35.95;19.23;;;20.70;92.10;;;;;;4915997;29;20051;-64
2022/11/01 08:44:10;;;;;;;25.02;15.13;;;20.70;92.10;;;;;;4916428;29;20063;-62
2022/11/01 08:47:14;;;;;;;28.52;16.95;;;20.80;92.50;;;;;;4916897;29;20047;-64
2022/11/01 08:50:18;;;;;;;32.75;17.67;;;21.00;92.40;;;;;;4916632;29;20051;-63
2022/11/01 08:53:23;;;;;;;30.88;16.02;;;21.10;92.30;;;;;;4916687;29;20050;-63
2022/11/01 08:56:28;;;;;;;32.92;16.05;;;21.20;92.40;;;;;;4915906;29;20062;-62
2022/11/01 08:59:31;;;;;;;39.08;19.17;;;21.30;92.40;;;;;;4915753;29;20047;-62
2022/11/01 09:02:36;;;;;;;28.75;16.98;;;21.40;92.10;;;;;;4915691;29;20051;-63
2022/11/01 09:05:40;;;;;;;31.98;17.58;;;21.50;92.10;;;;;;4916106;29;20047;-63
2022/11/01 09:08:44;;;;;;;28.50;16.70;;;21.60;92.10;;;;;;4916385;29;20051;-64
2022/11/01 09:11:48;;;;;;;29.42;17.58;;;21.70;92.00;;;;;;4916582;29;20388;-63
2022/11/01 09:14:52;;;;;;;33.25;18.63;;;21.80;91.80;;;;;;4915510;29;20042;-62
2022/11/01 09:17:56;;;;;;;38.42;21.52;;;21.90;91.60;;;;;;4916168;29;20424;-65
2022/11/01 09:21:00;;;;;;;32.55;19.60;;;22.00;91.50;;;;;;4916359;29;20472;-63
2022/11/01 09:24:05;;;;;;;32.65;18.27;;;22.20;91.40;;;;;;4916227;29;20055;-63
2022/11/01 09:27:09;;;;;;;27.40;16.25;;;22.20;91.80;;;;;;4916132;29;20503;-63
2022/11/01 09:30:13;;;;;;;26.40;17.13;;;22.30;92.50;;;;;;4915915;29;20055;-64
2022/11/01 09:33:20;;;;;;;27.55;16.50;;;22.50;92.40;;;;;;4916002;29;20048;-63
2022/11/01 09:36:25;;;;;;;30.05;17.48;;;22.60;92.20;;;;;;4916128;29;20047;-62
2022/11/01 09:39:29;;;;;;;29.63;15.57;;;22.80;92.10;;;;;;4915995;29;20424;-63
2022/11/01 09:42:38;;;;;;;23.95;14.73;;;23.00;91.80;;;;;;4915799;29;20043;-64
2022/11/01 09:45:42;;;;;;;23.25;14.50;;;23.10;91.40;;;;;;4915578;29;20063;-63
2022/11/01 09:48:48;;;;;;;23.05;14.38;;;23.20;91.30;;;;;;4915499;29;20067;-63
2022/11/01 09:51:52;;;;;;;23.95;14.05;;;23.40;91.00;;;;;;4915632;29;20424;-64
2022/11/01 09:54:57;;;;;;;28.75;17.65;;;23.50;90.70;;;;;;4915447;29;20047;-62
2022/11/01 09:58:22;;;;;;;22.83;14.68;;;23.60;90.40;;;;;;4914622;29;20540;-63
2022/11/01 10:01:34;;;;;;;28.88;15.07;;;23.70;89.60;;;;;;4915609;29;20047;-62
2022/11/01 10:04:47;;;;;;;25.15;14.07;;;23.70;89.30;;;;;;4914548;29;20503;-63
2022/11/01 10:08:11;;;;;;;29.67;17.58;;;23.70;89.70;;;;;;4915332;29;20047;-63
2022/11/01 10:11:34;;;;;;;27.05;17.02;;;23.70;89.00;;;;;;4915534;29;20059;-64
2022/11/01 10:14:55;;;;;;;26.42;14.05;;;23.70;89.60;;;;;;4914930;29;20043;-63
2022/11/01 10:18:11;;;;;;;27.98;16.27;;;23.80;90.00;;;;;;4915073;29;20063;-63
2022/11/01 10:21:18;;;;;;;30.33;17.50;;;23.80;89.50;;;;;;4915067;29;20055;-63
2022/11/01 10:24:40;;;;;;;36.33;17.10;;;23.90;89.10;;;;;;4915265;29;20051;-63
2022/11/01 10:27:58;;;;;;;25.60;14.85;;;24.00;88.50;;;;;;4914876;29;20060;-64
2022/11/01 10:31:09;;;;;;;32.17;18.55;;;24.10;88.80;;;;;;4915104;29;20392;-64
2022/11/01 10:34:17;;;;;;;21.45;13.27;;;24.10;88.70;;;;;;4914969;29;20055;-63
2022/11/01 10:37:52;;;;;;;22.55;14.25;;;24.20;89.00;;;;;;4914960;29;20063;-64
2022/11/01 10:41:05;;;;;;;24.70;16.55;;;24.20;88.80;;;;;;4914167;29;20047;-64
2022/11/01 10:44:23;;;;;;;29.95;15.98;;;24.20;88.70;;;;;;4914807;29;20507;-62
2022/11/01 10:47:28;;;;;;;25.48;14.85;;;24.30;89.30;;;;;;4914854;29;20048;-63
2022/11/01 10:50:33;;;;;;;24.55;14.88;;;24.30;88.80;;;;;;4914784;29;20059;-64
2022/11/01 10:53:43;;;;;;;28.67;14.77;;;24.30;89.00;;;;;;4914719;29;20043;-63
2022/11/01 10:56:50;;;;;;;19.85;12.90;;;24.30;89.00;;;;;;4914651;29;20070;-64
2022/11/01 10:59:56;;;;;;;25.40;13.88;;;24.30;88.90;;;;;;4914613;29;20051;-64
2022/11/01 11:03:15;;;;;;;27.08;13.10;;;24.30;88.70;;;;;;4914934;29;20499;-63
2022/11/01 11:06:19;;;;;;;25.88;15.88;;;24.30;88.10;;;;;;4914872;29;20039;-63
2022/11/01 11:09:34;;;;;;;22.95;13.93;;;24.20;87.90;;;;;;4914569;29;20059;-62
2022/11/01 11:12:41;;;;;;;25.58;14.70;;;24.20;88.10;;;;;;4914664;29;20392;-63
2022/11/01 11:15:59;;;;;;;23.95;14.25;;;24.20;88.00;;;;;;4914326;29;20063;-63
2022/11/01 11:19:21;;;;;;;20.85;14.13;;;24.10;88.20;;;;;;4914246;29;20047;-63
2022/11/01 11:22:26;;;;;;;18.73;13.13;;;24.10;88.10;;;;;;4914858;29;20074;-62
2022/11/01 11:25:35;;;;;;;17.48;12.70;;;24.00;87.00;;;;;;4913674;29;20536;-63
2022/11/01 11:28:44;;;;;;;25.08;12.80;;;23.90;87.30;;;;;;4917594;29;20050;-64
2022/11/01 11:31:58;;;;;;;22.30;14.50;;;23.90;87.60;;;;;;4918164;29;20146;-63
2022/11/01 11:35:07;;;;;;;20.52;12.30;;;23.90;87.90;;;;;;4917752;29;20114;-64
2022/11/01 11:38:13;;;;;;;16.20;10.60;;;23.80;87.30;;;;;;4917873;29;20499;-64
2022/11/01 11:41:35;;;;;;;22.10;13.45;;;23.80;87.10;;;;;;4918092;29;20059;-63
2022/11/01 11:44:47;;;;;;;21.98;12.50;;;23.80;85.90;;;;;;4917913;29;20063;-63
2022/11/01 11:47:52;;;;;;;21.42;12.23;;;23.70;85.70;;;;;;4917789;29;20066;-63
2022/11/01 11:51:05;;;;;;;20.13;11.10;;;23.80;86.00;;;;;;4917634;29;20051;-64
2022/11/01 11:54:30;;;;;;;15.38;9.60;;;23.70;86.10;;;;;;4917983;29;20051;-66
2022/11/01 11:57:35;;;;;;;16.38;9.93;;;23.70;86.50;;;;;;4917602;29;20047;-64
2022/11/01 12:00:45;;;;;;;18.58;11.63;;;23.80;87.00;;;;;;4917646;29;20039;-63
2022/11/01 12:04:08;;;;;;;21.33;12.38;;;23.80;87.10;;;;;;4917689;29;20071;-63
2022/11/01 12:07:23;;;;;;;19.67;11.23;;;23.70;87.00;;;;;;4917708;29;20495;-63
2022/11/01 12:10:39;;;;;;;16.63;10.43;;;23.70;87.10;;;;;;4917577;29;20047;-62
2022/11/01 12:13:58;;;;;;;20.52;12.57;;;23.70;87.40;;;;;;4917305;29;20294;-63
2022/11/01 12:17:32;;;;;;;20.98;12.13;;;23.70;88.40;;;;;;4917431;29;20047;-64
2022/11/01 12:20:37;;;;;;;24.13;12.73;;;23.70;89.00;;;;;;4917199;29;20039;-63
2022/11/01 12:23:42;;;;;;;19.27;12.73;;;23.70;89.70;;;;;;4917287;29;20050;-63
2022/11/01 12:26:48;;;;;;;17.48;10.25;;;23.70;90.10;;;;;;4917107;29;20515;-63
2022/11/01 12:30:07;;;;;;;24.73;12.88;;;23.70;90.20;;;;;;4916971;29;20401;-63
2022/11/01 12:33:48;;;;;;;22.52;12.70;;;23.60;90.30;;;;;;4917339;29;20408;-63
2022/11/01 12:37:04;;;;;;;23.52;13.05;;;23.60;90.50;;;;;;4917264;29;20055;-64
2022/11/01 12:40:20;;;;;;;23.95;15.40;;;23.60;90.70;;;;;;4916945;29;20059;-62
2022/11/01 12:43:48;;;;;;;22.65;14.40;;;23.60;90.90;;;;;;4917063;29;20055;-63
2022/11/01 12:47:05;;;;;;;24.63;14.13;;;23.60;91.10;;;;;;4916758;29;20047;-64
2022/11/01 12:50:21;;;;;;;25.10;15.52;;;23.60;91.10;;;;;;4916553;29;20051;-64
2022/11/01 12:53:43;;;;;;;17.77;12.50;;;23.60;91.10;;;;;;4916896;29;20047;-63
2022/11/01 12:56:47;;;;;;;20.98;13.70;;;23.60;91.20;;;;;;4916981;29;20055;-65
2022/11/01 12:59:51;;;;;;;18.40;13.13;;;23.50;91.10;;;;;;4916784;29;20456;-63
2022/11/01 13:03:22;;;;;;;27.20;13.93;;;23.50;91.20;;;;;;4916475;29;20063;-62
2022/11/01 13:06:32;;;;;;;;;;;23.50;91.20;;;;;;4916927;29;20043;-63
2022/11/01 13:10:18;;;;;;;21.42;15.27;;;23.50;91.20;;;;;;4915992;29;19923;-62
2022/11/01 13:14:11;;;;;;;25.63;14.32;;;23.50;91.30;;;;;;4916257;29;20064;-62
2022/11/01 13:17:48;;;;;;;20.45;13.18;;;23.40;91.40;;;;;;4913941;29;20052;-63
2022/11/01 13:21:16;;;;;;;20.00;12.65;;;23.40;91.40;;;;;;4914482;29;20160;-62
2022/11/01 13:24:35;;;;;;;18.80;12.90;;;23.40;91.50;;;;;;4916044;29;20409;-63
2022/11/01 13:28:11;;;;;;;25.35;14.00;;;23.30;91.60;;;;;;4915909;29;20476;-62
2022/11/01 13:31:22;;;;;;;17.10;11.50;;;23.30;91.70;;;;;;4919287;29;20055;-62
2022/11/01 13:34:32;;;;;;;17.83;10.45;;;23.30;91.80;;;;;;4915984;29;20079;-64
2022/11/01 13:38:01;;;;;;;18.73;12.00;;;23.30;91.90;;;;;;4915794;29;20047;-63
2022/11/01 13:41:50;;;;;;;20.63;12.68;;;23.20;91.90;;;;;;4915801;29;20133;-63
2022/11/01 13:45:23;;;;;;;22.55;13.50;;;23.20;92.00;;;;;;4915031;29;20047;-63
2022/11/01 13:48:57;;;;;;;17.17;12.18;;;23.20;92.30;;;;;;4915466;29;20054;-64
2022/11/01 13:52:09;;;;;;;20.35;11.90;;;23.10;92.20;;;;;;4915541;29;20059;-64
2022/11/01 13:55:42;;;;;;;19.85;12.85;;;23.10;92.40;;;;;;4915231;29;20055;-64
2022/11/01 13:58:47;;;;;;;15.65;10.35;;;23.10;92.50;;;;;;4915526;29;20064;-63
2022/11/01 14:01:51;;;;;;;22.52;13.00;;;23.10;92.50;;;;;;4915542;29;20047;-63
2022/11/01 14:04:54;;;;;;;30.48;17.20;;;23.00;92.60;;;;;;4915347;29;20051;-63
2022/11/01 14:08:35;;;;;;;19.33;13.10;;;23.00;93.10;;;;;;4915351;29;20540;-63
2022/11/01 14:11:46;;;;;;;26.65;15.07;;;23.00;93.20;;;;;;4915458;29;20059;-63
2022/11/01 14:14:51;;;;;;;18.30;12.00;;;22.90;93.40;;;;;;4915542;29;20071;-64
2022/11/01 14:18:08;;;;;;;19.63;12.65;;;22.90;93.40;;;;;;4915347;29;20067;-64
2022/11/01 14:21:38;;;;;;;21.42;13.93;;;22.90;93.60;;;;;;4915477;29;20051;-62
2022/11/01 14:24:53;;;;;;;23.70;14.77;;;22.80;93.70;;;;;;4903792;29;20047;-63
2022/11/01 14:28:15;;;;;;;15.95;11.90;;;22.80;94.00;;;;;;4915390;29;20605;-62
2022/11/01 14:31:22;;;;;;;20.45;14.13;;;22.80;94.10;;;;;;4915138;29;20055;-63
2022/11/01 14:34:31;;;;;;;19.30;11.65;;;22.80;94.20;;;;;;4915201;29;20596;-64
2022/11/01 14:37:43;;;;;;;19.33;12.02;;;22.70;94.20;;;;;;4914974;29;20064;-64
2022/11/01 14:40:53;;;;;;;15.30;10.73;;;22.70;94.30;;;;;;4914560;29;20055;-62
2022/11/01 14:44:10;;;;;;;19.13;12.27;;;22.70;94.40;;;;;;4914964;29;20047;-65
2022/11/01 14:47:39;;;;;;;21.85;13.13;;;22.70;94.60;;;;;;4913895;29;20051;-64
2022/11/01 14:50:57;;;;;;;18.65;11.20;;;22.60;94.90;;;;;;4914783;29;20519;-63
2022/11/01 14:54:30;;;;;;;21.92;12.32;;;22.60;95.20;;;;;;4914678;29;20123;-62
2022/11/01 14:57:34;;;;;;;16.58;10.63;;;22.60;95.40;;;;;;4913998;29;20056;-62
2022/11/01 15:00:39;;;;;;;21.83;12.52;;;22.60;95.50;;;;;;4914983;29;20503;-62
2022/11/01 15:03:57;;;;;;;20.73;12.13;;;22.50;95.80;;;;;;4918618;29;20054;-63
2022/11/01 15:07:01;;;;;;;21.08;11.15;;;22.50;95.90;;;;;;4918475;29;20400;-64
2022/11/01 15:10:08;;;;;;;17.08;10.43;;;22.40;96.00;;;;;;4918406;29;20412;-63
2022/11/01 15:13:14;;;;;;;26.02;12.73;;;22.40;96.00;;;;;;4918326;29;20055;-67
2022/11/01 15:16:25;;;;;;;20.27;12.00;;;22.40;96.20;;;;;;4918403;29;20047;-66
2022/11/01 15:19:34;;;;;;;20.02;11.90;;;22.30;96.30;;;;;;4918315;29;20511;-66
2022/11/01 15:22:41;;;;;;;27.85;13.40;;;22.30;96.40;;;;;;4918483;29;20055;-65
2022/11/01 15:25:54;;;;;;;16.60;11.75;;;22.20;96.40;;;;;;4918752;29;20048;-67
2022/11/01 15:29:04;;;;;;;26.20;13.20;;;22.20;96.60;;;;;;4917260;29;20059;-67
2022/11/01 15:32:22;;;;;;;16.67;11.80;;;22.10;96.50;;;;;;4918447;29;20043;-67
2022/11/01 15:35:25;;;;;;;20.20;12.73;;;22.10;96.50;;;;;;4918343;29;20432;-67
2022/11/01 15:38:35;;;;;;;22.38;11.77;;;22.00;96.60;;;;;;4918238;29;20047;-67
2022/11/01 15:41:38;;;;;;;22.33;12.90;;;22.00;96.90;;;;;;4917476;29;20060;-67
2022/11/01 15:44:44;;;;;;;19.63;12.45;;;22.00;97.10;;;;;;4917805;29;20055;-67
2022/11/01 15:47:48;;;;;;;23.17;12.55;;;21.90;97.20;;;;;;4917776;29;20397;-66
2022/11/01 15:50:56;;;;;;;23.58;13.05;;;21.90;97.30;;;;;;4917854;29;20059;-66
2022/11/01 15:54:14;;;;;;;21.05;11.90;;;21.80;97.50;;;;;;4917813;29;20051;-66
2022/11/01 15:57:17;;;;;;;23.85;14.07;;;21.80;97.60;;;;;;4916949;29;20047;-66
2022/11/01 16:00:26;;;;;;;23.20;12.57;;;21.80;97.80;;;;;;4918011;29;20063;-66
2022/11/01 16:04:01;;;;;;;20.17;13.05;;;21.70;97.90;;;;;;4917432;29;20047;-67
2022/11/01 16:07:09;;;;;;;30.33;15.02;;;21.70;98.00;;;;;;4918006;29;20051;-66
2022/11/01 16:10:23;;;;;;;30.58;16.20;;;21.60;98.10;;;;;;4916782;29;20051;-66
2022/11/01 16:13:31;;;;;;;29.92;16.27;;;21.60;98.30;;;;;;4916791;29;20051;-65
2022/11/01 16:16:55;;;;;;;27.90;16.33;;;21.50;98.50;;;;;;4917629;29;20593;-67
2022/11/01 16:20:03;;;;;;;30.52;16.95;;;21.50;98.60;;;;;;4916616;29;20051;-67
2022/11/01 16:23:11;;;;;;;29.77;17.25;;;21.40;98.70;;;;;;4916867;29;20059;-67
2022/11/01 16:26:15;;;;;;;27.40;17.85;;;21.40;98.90;;;;;;4917137;29;20051;-67
2022/11/01 16:29:56;;;;;;;32.53;17.02;;;21.30;99.10;;;;;;4917314;29;20503;-65
2022/11/01 16:33:29;;;;;;;35.28;18.27;;;21.30;99.30;;;;;;4917310;29;20051;-66
2022/11/01 16:36:40;;;;;;;28.42;17.35;;;21.20;99.40;;;;;;4917025;29;20472;-67
2022/11/01 16:39:45;;;;;;;40.97;18.55;;;21.20;99.50;;;;;;4916735;29;20043;-65